createdAt,value
2022-10-19T00:01:59.956Z,4.53
2022-10-19T00:04:26.573Z,4.10
2022-10-19T00:06:53.051Z,3.55
2022-10-19T00:09:19.558Z,4.18
2022-10-19T00:11:47.481Z,4.00
2022-10-19T00:14:18.071Z,4.20
2022-10-19T00:16:45.433Z,4.25
2022-10-19T00:19:13.655Z,3.88
2022-10-19T00:21:40.510Z,3.92
2022-10-19T00:24:07.842Z,3.63
2022-10-19T00:26:34.431Z,3.97
2022-10-19T00:29:01.110Z,3.70
2022-10-19T00:31:27.627Z,3.38
2022-10-19T00:33:55.635Z,3.90
2022-10-19T00:36:26.783Z,3.78
2022-10-19T00:38:53.745Z,4.15
2022-10-19T00:41:20.749Z,3.95
2022-10-19T00:43:55.308Z,3.53
2022-10-19T00:46:22.164Z,3.85
2022-10-19T00:51:20.787Z,3.65
2022-10-19T00:53:47.326Z,4.03
2022-10-19T00:56:15.499Z,3.75
2022-10-19T00:58:43.246Z,3.63
2022-10-19T01:01:11.458Z,3.40
2022-10-19T01:03:38.396Z,3.72
2022-10-19T01:06:05.256Z,3.42
2022-10-19T01:08:31.726Z,3.50
2022-10-19T01:11:04.677Z,3.58
2022-10-19T01:13:31.235Z,3.55
2022-10-19T01:16:12.246Z,3.47
2022-10-19T01:18:45.817Z,3.75
2022-10-19T01:21:23.377Z,4.40
2022-10-19T01:23:52.628Z,3.85
2022-10-19T01:26:31.498Z,3.42
2022-10-19T01:29:10.286Z,3.42
2022-10-19T01:31:36.857Z,3.20
2022-10-19T01:34:03.291Z,3.95
2022-10-19T01:36:41.797Z,3.30
2022-10-19T01:39:11.547Z,3.90
2022-10-19T01:41:37.988Z,3.75
2022-10-19T01:44:13.358Z,3.38
2022-10-19T01:46:41.360Z,3.25
2022-10-19T01:49:11.185Z,3.47
2022-10-19T01:51:40.416Z,3.15
2022-10-19T01:54:09.579Z,3.25
2022-10-19T01:56:36.556Z,3.97
2022-10-19T01:59:04.987Z,3.75
2022-10-19T02:01:33.586Z,3.75
2022-10-19T02:04:00.647Z,3.70
2022-10-19T02:06:27.636Z,3.60
2022-10-19T02:08:54.536Z,3.50
2022-10-19T02:11:22.297Z,3.30
2022-10-19T02:13:51.997Z,3.70
2022-10-19T02:16:21.166Z,2.97
2022-10-19T02:18:49.957Z,3.13
2022-10-19T02:21:16.656Z,2.97
2022-10-19T02:23:43.076Z,3.20
2022-10-19T02:26:09.566Z,3.10
2022-10-19T02:28:36.397Z,3.03
2022-10-19T02:31:02.997Z,3.38
2022-10-19T02:33:29.877Z,3.13
2022-10-19T02:35:57.036Z,3.10
2022-10-19T02:38:24.118Z,3.53
2022-10-19T02:40:58.569Z,3.30
2022-10-19T02:43:26.557Z,3.22
2022-10-19T02:46:00.487Z,3.90
2022-10-19T02:48:27.835Z,3.05
2022-10-19T02:50:54.307Z,3.13
2022-10-19T02:53:20.847Z,3.58
2022-10-19T02:55:48.999Z,3.42
2022-10-19T02:58:15.713Z,2.88
2022-10-19T03:00:42.290Z,2.97
2022-10-19T03:03:09.364Z,2.78
2022-10-19T03:05:35.830Z,3.20
2022-10-19T03:08:02.413Z,2.97
2022-10-19T03:10:28.860Z,2.80
2022-10-19T03:12:57.413Z,2.90
2022-10-19T03:15:27.234Z,3.00
2022-10-19T03:17:54.012Z,2.70
2022-10-19T03:20:20.484Z,2.92
2022-10-19T03:22:47.019Z,2.78
2022-10-19T03:25:13.553Z,2.85
2022-10-19T03:27:39.993Z,2.83
2022-10-19T03:30:06.744Z,2.90
2022-10-19T03:32:33.193Z,2.75
2022-10-19T03:34:59.643Z,2.55
2022-10-19T03:37:26.154Z,2.63
2022-10-19T03:39:52.615Z,2.53
2022-10-19T03:42:19.083Z,2.30
2022-10-19T03:44:45.552Z,2.70
2022-10-19T03:47:12.032Z,2.35
2022-10-19T03:49:40.282Z,2.63
2022-10-19T03:52:07.044Z,2.95
2022-10-19T03:54:33.473Z,2.83
2022-10-19T03:56:59.973Z,2.60
2022-10-19T03:59:26.596Z,2.45
2022-10-19T04:01:53.163Z,2.40
2022-10-19T04:04:20.073Z,2.40
2022-10-19T04:06:48.412Z,2.40
2022-10-19T04:09:16.452Z,2.40
2022-10-19T04:11:43.272Z,2.50
2022-10-19T04:14:10.874Z,2.28
2022-10-19T04:16:37.592Z,2.50
2022-10-19T04:19:04.133Z,2.33
2022-10-19T04:21:31.699Z,2.25
2022-10-19T04:24:00.274Z,2.20
2022-10-19T04:26:27.373Z,2.22
2022-10-19T04:28:54.058Z,2.08
2022-10-19T04:31:20.647Z,2.30
2022-10-19T04:36:18.607Z,2.45
2022-10-19T04:38:45.134Z,2.40
2022-10-19T04:41:12.748Z,2.30
2022-10-19T04:43:39.707Z,2.20
2022-10-19T04:46:10.189Z,2.42
2022-10-19T04:48:37.564Z,2.53
2022-10-19T04:51:04.349Z,2.50
2022-10-19T04:53:31.039Z,2.38
2022-10-19T04:55:57.544Z,2.30
2022-10-19T04:58:24.084Z,2.50
2022-10-19T05:00:50.711Z,2.40
2022-10-19T05:03:17.765Z,2.38
2022-10-19T05:05:44.273Z,2.30
2022-10-19T05:08:10.815Z,2.10
2022-10-19T05:10:37.995Z,2.47
2022-10-19T05:13:04.923Z,2.47
2022-10-19T05:15:31.384Z,2.28
2022-10-19T05:17:58.048Z,2.40
2022-10-19T05:20:24.661Z,2.45
2022-10-19T05:22:51.359Z,2.25
2022-10-19T05:25:17.819Z,2.70
2022-10-19T05:27:44.400Z,1.95
2022-10-19T05:30:10.929Z,2.70
2022-10-19T05:32:37.391Z,2.13
2022-10-19T05:35:04.000Z,2.58
2022-10-19T05:37:30.462Z,2.40
2022-10-19T05:39:56.930Z,2.40
2022-10-19T05:42:23.418Z,2.20
2022-10-19T05:44:49.878Z,1.92
2022-10-19T05:47:16.468Z,2.25
2022-10-19T05:49:42.908Z,2.20
2022-10-19T05:52:09.421Z,2.50
2022-10-19T05:54:36.657Z,3.42
2022-10-19T05:57:03.228Z,2.17
2022-10-19T05:59:29.678Z,2.45
2022-10-19T06:01:56.221Z,2.08
2022-10-19T06:04:22.791Z,2.33
2022-10-19T06:06:49.239Z,2.83
2022-10-19T06:09:15.749Z,2.47
2022-10-19T06:11:42.851Z,2.30
2022-10-19T06:14:13.248Z,2.10
2022-10-19T06:16:39.868Z,2.45
2022-10-19T06:19:06.416Z,2.33
2022-10-19T06:21:33.305Z,2.55
2022-10-19T06:24:01.136Z,2.08
2022-10-19T06:26:27.886Z,1.92
2022-10-19T06:28:55.886Z,2.13
2022-10-19T06:31:22.377Z,2.50
2022-10-19T06:33:49.852Z,2.35
2022-10-19T06:36:18.429Z,31.85
2022-10-19T06:38:45.216Z,16.15
2022-10-19T06:41:12.116Z,8.40
2022-10-19T06:43:39.055Z,5.50
2022-10-19T06:46:06.244Z,4.38
2022-10-19T06:48:32.945Z,3.03
2022-10-19T06:51:00.310Z,2.65
2022-10-19T06:53:27.268Z,2.90
2022-10-19T06:55:53.777Z,2.40
2022-10-19T06:58:20.248Z,2.83
2022-10-19T07:00:53.876Z,2.60
2022-10-19T07:03:20.406Z,2.30
2022-10-19T07:05:52.547Z,2.53
2022-10-19T07:08:19.046Z,2.55
2022-10-19T07:10:49.276Z,2.38
2022-10-19T07:13:15.799Z,2.70
2022-10-19T07:15:42.771Z,2.45
2022-10-19T07:18:09.457Z,2.63
2022-10-19T07:20:37.136Z,2.80
2022-10-19T07:23:03.923Z,2.70
2022-10-19T07:25:30.837Z,1.98
2022-10-19T07:27:57.318Z,2.13
2022-10-19T07:30:23.950Z,2.40
2022-10-19T07:32:50.419Z,2.70
2022-10-19T07:35:16.918Z,2.30
2022-10-19T07:37:43.419Z,2.17
2022-10-19T07:40:10.200Z,2.33
2022-10-19T07:42:37.764Z,2.20
2022-10-19T07:45:04.547Z,2.45
2022-10-19T07:47:31.073Z,2.30
2022-10-19T07:49:57.557Z,2.00
2022-10-19T07:52:24.086Z,2.10
2022-10-19T07:54:50.766Z,2.08
2022-10-19T07:57:17.241Z,2.00
2022-10-19T07:59:43.757Z,2.15
2022-10-19T08:02:14.456Z,1.92
2022-10-19T08:05:01.093Z,2.00
2022-10-19T08:07:27.467Z,2.00
2022-10-19T08:09:54.488Z,2.00
2022-10-19T08:12:21.247Z,2.10
2022-10-19T08:14:48.283Z,2.05
2022-10-19T08:17:17.527Z,2.25
2022-10-19T08:19:44.811Z,1.92
2022-10-19T08:22:11.349Z,2.05
2022-10-19T08:24:37.824Z,2.05
2022-10-19T08:27:04.426Z,1.95
2022-10-19T08:29:31.771Z,1.90
2022-10-19T08:31:59.030Z,1.85
2022-10-19T08:34:25.548Z,2.22
2022-10-19T08:36:52.081Z,2.00
2022-10-19T08:39:18.514Z,2.17
2022-10-19T08:42:03.624Z,2.10
2022-10-19T08:44:47.694Z,1.27
2022-10-19T08:47:23.696Z,2.10
2022-10-19T08:49:50.533Z,1.50
2022-10-19T08:52:22.153Z,2.10
2022-10-19T08:54:56.735Z,1.90
2022-10-19T08:57:23.153Z,1.98
2022-10-19T08:59:54.653Z,1.83
2022-10-19T09:02:27.103Z,2.15
2022-10-19T09:05:00.691Z,1.55
2022-10-19T09:07:33.592Z,1.95
2022-10-19T09:10:20.416Z,2.25
2022-10-19T09:12:56.366Z,2.25
2022-10-19T09:15:47.128Z,2.13
2022-10-19T09:18:25.407Z,1.70
2022-10-19T09:20:56.538Z,1.73
2022-10-19T09:23:27.667Z,2.00
2022-10-19T09:25:54.278Z,2.22
2022-10-19T09:28:40.178Z,7.32
2022-10-19T09:31:10.928Z,16.95
2022-10-19T09:33:38.528Z,6.45
2022-10-19T09:36:06.198Z,3.75
2022-10-19T09:38:32.688Z,2.85
2022-10-19T09:41:05.768Z,3.13
2022-10-19T09:43:32.428Z,2.55
2022-10-19T09:46:20.491Z,2.33
2022-10-19T09:48:53.478Z,2.67
2022-10-19T09:51:20.459Z,4.13
2022-10-19T09:53:56.447Z,2.50
2022-10-19T09:56:27.047Z,2.85
2022-10-19T09:58:58.556Z,2.00
2022-10-19T10:01:41.613Z,1.60
2022-10-19T10:04:18.602Z,2.58
2022-10-19T10:06:47.344Z,2.20
2022-10-19T10:09:23.677Z,2.20
2022-10-19T10:11:50.926Z,1.77
2022-10-19T10:14:17.438Z,1.80
2022-10-19T10:16:43.947Z,4.38
2022-10-19T10:19:12.867Z,3.97
2022-10-19T10:21:54.687Z,2.55
2022-10-19T10:24:31.459Z,2.20
2022-10-19T10:26:59.337Z,3.30
2022-10-19T10:29:27.023Z,6.40
2022-10-19T10:31:55.748Z,5.70
2022-10-19T10:34:45.334Z,7.82
2022-10-19T10:37:19.457Z,3.72
2022-10-19T10:39:46.168Z,8.57
2022-10-19T10:42:18.777Z,40.40
2022-10-19T10:44:46.448Z,27.17
2022-10-19T10:47:14.987Z,17.60
2022-10-19T10:49:42.707Z,12.98
2022-10-19T10:52:14.078Z,10.80
2022-10-19T10:54:40.547Z,10.70
2022-10-19T10:57:14.682Z,7.95
2022-10-19T10:59:45.632Z,6.38
2022-10-19T11:02:12.409Z,8.20
2022-10-19T11:04:41.228Z,5.93
2022-10-19T11:07:20.398Z,4.05
2022-10-19T11:09:51.208Z,3.53
2022-10-19T11:12:19.769Z,3.65
2022-10-19T11:14:48.548Z,3.22
2022-10-19T11:17:18.559Z,2.97
2022-10-19T11:19:45.381Z,2.50
2022-10-19T11:22:17.938Z,2.53
2022-10-19T11:25:03.399Z,2.35
2022-10-19T11:27:33.174Z,2.85
2022-10-19T11:30:22.338Z,2.03
2022-10-19T11:33:07.418Z,2.42
2022-10-19T11:35:46.147Z,2.40
2022-10-19T11:38:20.347Z,3.45
2022-10-19T11:41:17.462Z,2.08
2022-10-19T11:43:40.577Z,1.95
2022-10-19T11:46:20.297Z,2.90
2022-10-19T11:48:54.793Z,2.35
2022-10-19T11:51:39.987Z,5.00
2022-10-19T11:54:25.067Z,6.63
2022-10-19T11:57:07.319Z,2.30
2022-10-19T11:59:40.708Z,2.28
2022-10-19T12:02:22.481Z,1.73
2022-10-19T12:05:00.957Z,1.90
2022-10-19T12:07:36.747Z,1.90
2022-10-19T12:10:08.451Z,1.80
2022-10-19T12:12:37.189Z,2.00
2022-10-19T12:15:03.929Z,1.80
2022-10-19T12:17:33.103Z,2.10
2022-10-19T12:20:02.547Z,2.10
2022-10-19T12:22:30.210Z,1.80
2022-10-19T12:24:58.747Z,2.40
2022-10-19T12:27:39.447Z,2.10
2022-10-19T12:30:13.747Z,2.47
2022-10-19T12:32:50.666Z,2.10
2022-10-19T12:35:21.759Z,1.80
2022-10-19T12:37:53.757Z,1.42
2022-10-19T12:40:25.568Z,1.70
2022-10-19T12:42:53.178Z,1.90
2022-10-19T12:45:28.567Z,1.67
2022-10-19T12:48:24.757Z,1.42
2022-10-19T12:50:53.809Z,1.92
2022-10-19T12:56:08.298Z,1.35
2022-10-19T12:58:40.698Z,1.80
2022-10-19T13:01:15.265Z,1.50
2022-10-19T13:03:42.978Z,1.55
2022-10-19T13:06:24.538Z,1.70
2022-10-19T13:08:53.596Z,1.83
2022-10-19T13:11:20.380Z,1.75
2022-10-19T13:13:51.558Z,1.55
2022-10-19T13:16:30.067Z,1.77
2022-10-19T13:18:59.149Z,1.58
2022-10-19T13:21:45.618Z,1.67
2022-10-19T13:24:23.940Z,1.90
2022-10-19T13:27:02.829Z,2.13
2022-10-19T13:29:41.428Z,1.95
2022-10-19T13:32:26.738Z,1.85
2022-10-19T13:34:53.278Z,1.50
2022-10-19T13:37:19.748Z,2.00
2022-10-19T13:39:46.949Z,1.50
2022-10-19T13:42:28.697Z,1.90
2022-10-19T13:44:55.988Z,1.67
2022-10-19T13:47:35.739Z,1.75
2022-10-19T13:50:10.448Z,1.73
2022-10-19T13:52:55.428Z,1.58
2022-10-19T13:55:30.937Z,2.08
2022-10-19T13:58:14.157Z,2.00
2022-10-19T14:00:49.678Z,1.95
2022-10-19T14:03:34.588Z,1.92
2022-10-19T14:06:19.517Z,2.33
2022-10-19T14:09:10.489Z,1.48
2022-10-19T14:11:39.467Z,1.92
2022-10-19T14:14:11.777Z,2.00
2022-10-19T14:16:58.303Z,2.05
2022-10-19T14:19:27.897Z,1.80
2022-10-19T14:21:55.468Z,1.73
2022-10-19T14:24:27.569Z,1.95
2022-10-19T14:26:54.344Z,2.05
2022-10-19T14:29:20.926Z,1.98
2022-10-19T14:31:47.468Z,1.60
2022-10-19T14:34:14.279Z,1.70
2022-10-19T14:36:44.919Z,1.80
2022-10-19T14:39:24.957Z,2.03
2022-10-19T14:41:53.667Z,2.20
2022-10-19T14:44:24.168Z,2.25
2022-10-19T14:46:50.695Z,2.50
2022-10-19T14:49:17.683Z,2.25
2022-10-19T14:51:46.658Z,1.95
2022-10-19T14:54:19.309Z,1.80
2022-10-19T14:57:04.389Z,2.03
2022-10-19T14:59:46.399Z,2.10
2022-10-19T15:02:34.572Z,1.83
2022-10-19T15:05:02.974Z,2.30
2022-10-19T15:07:39.597Z,2.08
2022-10-19T15:10:16.297Z,2.10
2022-10-19T15:12:43.667Z,2.22
2022-10-19T15:15:16.367Z,2.63
2022-10-19T15:17:50.608Z,2.00
2022-10-19T15:20:23.939Z,2.17
2022-10-19T15:22:50.427Z,2.30
2022-10-19T15:25:33.929Z,2.30
2022-10-19T15:28:26.718Z,2.20
2022-10-19T15:31:01.037Z,2.20
2022-10-19T15:33:28.128Z,2.00
2022-10-19T15:36:04.139Z,1.90
2022-10-19T15:38:32.416Z,2.05
2022-10-19T15:41:00.677Z,2.33
2022-10-19T15:43:30.222Z,2.30
2022-10-19T15:46:06.941Z,2.35
2022-10-19T15:48:44.498Z,2.60
2022-10-19T15:51:31.188Z,2.13
2022-10-19T15:53:59.153Z,2.10
2022-10-19T15:56:26.908Z,2.85
2022-10-19T15:58:54.405Z,2.90
2022-10-19T16:01:28.322Z,2.45
2022-10-19T16:03:55.050Z,2.25
2022-10-19T16:06:23.265Z,2.10
2022-10-19T16:08:51.321Z,2.40
2022-10-19T16:11:18.995Z,2.20
2022-10-19T16:13:45.525Z,2.08
2022-10-19T16:16:42.075Z,2.20
2022-10-19T16:19:09.935Z,2.35
2022-10-19T16:21:36.865Z,2.20
2022-10-19T16:24:03.815Z,2.30
2022-10-19T16:26:32.118Z,2.38
2022-10-19T16:28:59.186Z,2.58
2022-10-19T16:31:25.764Z,2.17
2022-10-19T16:33:52.215Z,2.40
2022-10-19T16:36:21.635Z,2.15
2022-10-19T16:38:48.224Z,1.95
2022-10-19T16:41:15.036Z,2.22
2022-10-19T16:43:41.658Z,1.90
2022-10-19T16:46:08.475Z,1.95
2022-10-19T16:48:35.185Z,1.58
2022-10-19T16:51:07.593Z,2.00
2022-10-19T16:53:34.735Z,2.35
2022-10-19T16:56:05.284Z,1.90
2022-10-19T16:58:31.754Z,1.90
2022-10-19T17:01:01.525Z,1.92
2022-10-19T17:03:28.795Z,2.17
2022-10-19T17:05:55.244Z,2.00
2022-10-19T17:08:26.326Z,2.10
2022-10-19T17:10:57.339Z,2.08
2022-10-19T17:13:23.914Z,1.92
2022-10-19T17:15:50.411Z,1.98
2022-10-19T17:20:48.290Z,1.75
2022-10-19T17:23:14.749Z,1.73
2022-10-19T17:25:46.502Z,1.63
2022-10-19T17:28:13.288Z,1.83
2022-10-19T17:30:42.608Z,1.23
2022-10-19T17:33:09.029Z,1.20
2022-10-19T17:35:35.547Z,1.50
2022-10-19T17:38:02.017Z,1.35
2022-10-19T17:40:28.438Z,1.33
2022-10-19T17:42:54.958Z,1.52
2022-10-19T17:45:21.427Z,1.92
2022-10-19T17:47:47.888Z,1.70
2022-10-19T17:50:14.407Z,1.30
2022-10-19T17:52:40.868Z,2.28
2022-10-19T17:55:12.278Z,1.67
2022-10-19T17:57:39.688Z,1.38
2022-10-19T18:00:07.219Z,1.60
2022-10-19T18:02:35.549Z,1.30
2022-10-19T18:05:02.593Z,1.52
2022-10-19T18:07:29.644Z,1.70
2022-10-19T18:09:56.288Z,1.67
2022-10-19T18:12:22.767Z,1.33
2022-10-19T18:14:49.243Z,1.70
2022-10-19T18:17:15.774Z,28.10
2022-10-19T18:19:42.378Z,12.40
2022-10-19T18:22:08.838Z,7.72
2022-10-19T18:24:35.349Z,6.68
2022-10-19T18:27:01.798Z,4.97
2022-10-19T18:29:28.279Z,4.18
2022-10-19T18:31:55.265Z,3.72
2022-10-19T18:34:23.363Z,2.80
2022-10-19T18:36:50.153Z,3.20
2022-10-19T18:39:17.184Z,2.83
2022-10-19T18:41:43.725Z,3.22
2022-10-19T18:44:12.525Z,2.90
2022-10-19T18:46:39.496Z,2.60
2022-10-19T18:49:07.042Z,3.10
2022-10-19T18:51:33.544Z,2.50
2022-10-19T18:54:00.193Z,2.13
2022-10-19T18:56:26.730Z,2.15
2022-10-19T18:58:53.183Z,2.17
2022-10-19T19:01:23.003Z,2.08
2022-10-19T19:03:50.314Z,2.40
2022-10-19T19:06:17.965Z,2.53
2022-10-19T19:08:47.420Z,2.15
2022-10-19T19:11:15.290Z,2.13
2022-10-19T19:13:42.734Z,1.98
2022-10-19T19:16:09.339Z,2.63
2022-10-19T19:18:35.991Z,2.20
2022-10-19T19:21:03.161Z,2.10
2022-10-19T19:23:30.732Z,2.03
2022-10-19T19:25:57.362Z,1.85
2022-10-19T19:28:23.901Z,1.80
2022-10-19T19:30:50.412Z,1.95
2022-10-19T19:33:16.951Z,1.80
2022-10-19T19:35:44.194Z,2.20
2022-10-19T19:38:12.054Z,1.80
2022-10-19T19:40:39.511Z,1.83
2022-10-19T19:43:06.339Z,1.73
2022-10-19T19:45:32.821Z,1.85
2022-10-19T19:47:59.312Z,1.70
2022-10-19T19:50:26.031Z,1.55
2022-10-19T19:52:52.672Z,1.70
2022-10-19T19:55:19.151Z,1.80
2022-10-19T19:57:48.563Z,1.65
2022-10-19T20:00:16.844Z,1.60
2022-10-19T20:02:43.713Z,1.52
2022-10-19T20:05:10.421Z,1.60
2022-10-19T20:07:37.166Z,1.67
2022-10-19T20:10:04.011Z,1.50
2022-10-19T20:12:30.551Z,1.70
2022-10-19T20:14:57.044Z,2.00
2022-10-19T20:17:25.103Z,1.60
2022-10-19T20:19:51.710Z,1.63
2022-10-19T20:22:18.291Z,1.80
2022-10-19T20:24:44.859Z,1.83
2022-10-19T20:27:11.303Z,1.65
2022-10-19T20:29:37.796Z,1.77
2022-10-19T20:32:04.275Z,1.73
2022-10-19T20:34:30.762Z,1.52
2022-10-19T20:36:57.732Z,1.80
2022-10-19T20:39:24.261Z,1.35
2022-10-19T20:41:50.721Z,1.60
2022-10-19T20:44:17.322Z,1.75
2022-10-19T20:46:44.002Z,1.45
2022-10-19T20:49:11.465Z,1.75
2022-10-19T20:51:38.529Z,1.33
2022-10-19T20:54:10.141Z,1.55
2022-10-19T20:56:37.469Z,1.52
2022-10-19T20:59:05.111Z,1.40
2022-10-19T21:01:32.780Z,1.10
2022-10-19T21:04:03.410Z,1.38
2022-10-19T21:06:31.060Z,1.23
2022-10-19T21:08:58.302Z,1.13
2022-10-19T21:11:25.981Z,1.17
2022-10-19T21:13:53.336Z,1.25
2022-10-19T21:16:21.086Z,1.30
2022-10-19T21:18:48.530Z,1.10
2022-10-19T21:21:19.425Z,1.20
2022-10-19T21:23:46.807Z,1.40
2022-10-19T21:26:13.425Z,1.50
2022-10-19T21:28:41.500Z,1.30
2022-10-19T21:31:09.362Z,1.15
2022-10-19T21:33:36.141Z,1.30
2022-10-19T21:36:03.852Z,1.48
2022-10-19T21:38:30.740Z,1.58
2022-10-19T21:41:00.806Z,1.23
2022-10-19T21:43:27.938Z,1.65
2022-10-19T21:45:54.995Z,1.30
2022-10-19T21:48:21.959Z,1.17
2022-10-19T21:50:48.935Z,1.30
2022-10-19T21:53:23.623Z,1.35
2022-10-19T21:55:51.018Z,1.38
2022-10-19T21:58:17.805Z,1.30
2022-10-19T22:00:44.385Z,1.60
2022-10-19T22:03:10.992Z,1.40
2022-10-19T22:05:37.659Z,1.02
2022-10-19T22:08:04.254Z,1.10
2022-10-19T22:10:31.115Z,1.30
2022-10-19T22:12:57.840Z,1.23
2022-10-19T22:15:24.402Z,1.20
2022-10-19T22:17:51.418Z,1.27
2022-10-19T22:20:17.902Z,1.13
2022-10-19T22:22:44.371Z,1.40
2022-10-19T22:25:10.775Z,1.30
2022-10-19T22:27:37.212Z,1.38
2022-10-19T22:30:03.761Z,1.20
2022-10-19T22:32:30.178Z,1.20
2022-10-19T22:34:56.633Z,1.30
2022-10-19T22:37:23.072Z,1.67
2022-10-19T22:39:49.491Z,1.20
2022-10-19T22:42:15.891Z,1.30
2022-10-19T22:44:42.413Z,1.30
2022-10-19T22:47:08.933Z,1.45
2022-10-19T22:49:35.347Z,1.40
2022-10-19T22:52:01.811Z,1.20
2022-10-19T22:54:28.209Z,1.30
2022-10-19T22:56:54.773Z,1.42
2022-10-19T22:59:21.231Z,1.30
2022-10-19T23:01:47.784Z,1.20
2022-10-19T23:04:14.540Z,1.50
2022-10-19T23:06:41.109Z,1.20
2022-10-19T23:09:07.691Z,1.10
2022-10-19T23:11:34.200Z,1.10
2022-10-19T23:14:01.212Z,1.35
2022-10-19T23:18:59.255Z,1.30
2022-10-19T23:21:25.847Z,1.08
2022-10-19T23:23:52.458Z,1.45
2022-10-19T23:26:20.167Z,1.35
2022-10-19T23:28:48.020Z,1.27
2022-10-19T23:31:16.689Z,1.30
2022-10-19T23:33:43.816Z,1.20
2022-10-19T23:36:17.845Z,1.10
2022-10-19T23:38:45.305Z,1.30
2022-10-19T23:41:12.762Z,1.23
2022-10-19T23:43:39.903Z,1.30
2022-10-19T23:46:06.844Z,1.13
2022-10-19T23:48:34.469Z,1.20
2022-10-19T23:51:03.092Z,1.35
2022-10-19T23:53:32.391Z,1.33
2022-10-19T23:56:04.295Z,1.33
2022-10-19T23:58:31.074Z,1.30
